Arnott, Wisconsin
Current Conditions -  °F | °C
As of 11:15 AM on Saturday 25 Oct 2014 (Local Time) from KSTE Reporting Station
Clear Clear  
Wind Chill: 56°   Ceiling: Unl
Heat Index: 56°   Visibility: 10mi
Dew Point: 32°   Wind: 10mph
Humidity: 40%   Direction: 300°WNW
Pressure: 29.91"   Gusts: 23mph
Location:  44.5531°N, 89.5186°W
Report Text: KSTE 251615Z AUTO 30009G20KT 10SM CLR 13/00 A2991 RMK AO2 T01340001
Loading
Personal Weather Stations






























Interactive Weather Map
Tropical Storm Tracking
New forecast layout! Learn more

10-Day Weather Forecast

Advertisements
Track Severe Weather on mobile